createdAt,value
2018-12-21T00:00:26.713Z,0
2018-12-21T00:01:27.365Z,0
2018-12-21T00:02:28.019Z,0
2018-12-21T00:03:28.678Z,0
2018-12-21T00:04:29.331Z,0
2018-12-21T00:05:29.987Z,0
2018-12-21T00:06:30.643Z,0
2018-12-21T00:07:31.296Z,0
2018-12-21T00:08:31.950Z,0
2018-12-21T00:09:32.606Z,0
2018-12-21T00:10:33.262Z,0
2018-12-21T00:11:33.917Z,0
2018-12-21T00:12:34.572Z,0
2018-12-21T00:13:35.228Z,0
2018-12-21T00:14:35.928Z,0
2018-12-21T00:15:36.583Z,0
2018-12-21T00:16:37.239Z,0
2018-12-21T00:17:37.938Z,0
2018-12-21T00:18:38.593Z,0
2018-12-21T00:19:39.247Z,0
2018-12-21T00:20:39.903Z,0
2018-12-21T00:21:40.562Z,0
2018-12-21T00:22:41.216Z,0
2018-12-21T00:23:41.870Z,0
2018-12-21T00:24:42.569Z,0
2018-12-21T00:25:43.224Z,0
2018-12-21T00:26:43.880Z,0
2018-12-21T00:27:44.536Z,0
2018-12-21T00:28:45.239Z,0
2018-12-21T00:29:45.937Z,0
2018-12-21T00:30:46.595Z,0
2018-12-21T00:31:47.299Z,0
2018-12-21T00:32:47.957Z,0
2018-12-21T00:33:48.655Z,0
2018-12-21T00:34:49.310Z,0
2018-12-21T00:35:49.965Z,0
2018-12-21T00:36:50.620Z,0
2018-12-21T00:37:51.276Z,0
2018-12-21T00:38:51.929Z,0
2018-12-21T00:39:52.584Z,0
2018-12-21T00:40:53.239Z,0
2018-12-21T00:41:53.894Z,0
2018-12-21T00:42:54.549Z,0
2018-12-21T00:43:55.204Z,0
2018-12-21T00:44:55.859Z,0
2018-12-21T00:45:56.515Z,0
2018-12-21T00:46:57.171Z,0
2018-12-21T00:47:57.828Z,0
2018-12-21T00:48:58.527Z,0
2018-12-21T00:49:59.179Z,0
2018-12-21T00:50:59.835Z,0
2018-12-21T00:52:00.535Z,0
2018-12-21T00:53:01.189Z,0
2018-12-21T00:54:01.845Z,0
2018-12-21T00:55:02.501Z,0
2018-12-21T00:56:03.159Z,0
2018-12-21T00:57:03.816Z,0
2018-12-21T00:58:04.516Z,0
2018-12-21T00:59:05.171Z,0
2018-12-21T01:00:05.826Z,0
2018-12-21T01:01:06.481Z,0
2018-12-21T01:02:07.136Z,0
2018-12-21T01:03:07.791Z,0
2018-12-21T01:04:08.450Z,0
2018-12-21T01:05:09.102Z,0
2018-12-21T01:06:09.755Z,0
2018-12-21T01:07:10.412Z,0
2018-12-21T01:08:11.066Z,0
2018-12-21T01:09:11.720Z,0
2018-12-21T01:10:12.378Z,0
2018-12-21T01:11:13.032Z,0
2018-12-21T01:12:13.688Z,0
2018-12-21T01:13:14.341Z,0
2018-12-21T01:14:14.997Z,0
2018-12-21T01:15:15.653Z,0
2018-12-21T01:16:16.308Z,0
2018-12-21T01:17:16.963Z,0
2018-12-21T01:18:17.619Z,0
2018-12-21T01:19:18.275Z,0
2018-12-21T01:20:18.929Z,0
2018-12-21T01:21:19.583Z,0
2018-12-21T01:22:20.238Z,0
2018-12-21T01:23:20.896Z,0
2018-12-21T01:24:21.549Z,0
2018-12-21T01:25:22.204Z,0
2018-12-21T01:26:22.859Z,0
2018-12-21T01:27:23.517Z,0
2018-12-21T01:28:24.171Z,0
2018-12-21T01:29:24.873Z,0
2018-12-21T01:30:25.524Z,0
2018-12-21T01:31:26.178Z,0
2018-12-21T01:32:26.879Z,0
2018-12-21T01:33:27.535Z,0
2018-12-21T01:34:28.190Z,0
2018-12-21T01:35:28.846Z,0
2018-12-21T01:36:29.499Z,0
2018-12-21T01:37:30.200Z,0
2018-12-21T01:38:30.854Z,0
2018-12-21T01:39:31.509Z,0
2018-12-21T01:40:32.166Z,0
2018-12-21T01:41:32.821Z,0
2018-12-21T01:42:33.477Z,0
2018-12-21T01:43:34.130Z,0
2018-12-21T01:44:34.790Z,0
2018-12-21T01:45:35.440Z,0
2018-12-21T01:46:36.094Z,0
2018-12-21T01:47:36.750Z,0
2018-12-21T01:48:37.409Z,0
2018-12-21T01:49:38.063Z,0
2018-12-21T01:50:38.717Z,0
2018-12-21T01:51:46.927Z,0
2018-12-21T01:52:41.020Z,0
2018-12-21T01:53:41.674Z,0
2018-12-21T01:54:42.327Z,0
2018-12-21T01:55:42.985Z,0
2018-12-21T01:56:43.637Z,0
2018-12-21T01:57:44.359Z,0
2018-12-21T01:58:44.961Z,0
2018-12-21T01:59:45.617Z,0
2018-12-21T02:00:46.273Z,0
2018-12-21T02:01:46.928Z,0
2018-12-21T02:02:47.583Z,0
2018-12-21T02:03:48.242Z,0
2018-12-21T02:04:48.938Z,0
2018-12-21T02:05:49.592Z,0
2018-12-21T02:06:50.248Z,0
2018-12-21T02:07:50.904Z,0
2018-12-21T02:08:51.560Z,0
2018-12-21T02:09:52.216Z,0
2018-12-21T02:10:52.875Z,0
2018-12-21T02:11:53.524Z,0
2018-12-21T02:12:54.178Z,0
2018-12-21T02:13:54.834Z,0
2018-12-21T02:14:55.488Z,0
2018-12-21T02:15:56.155Z,0
2018-12-21T02:16:56.799Z,0
2018-12-21T02:17:57.453Z,0
2018-12-21T02:18:58.107Z,0
2018-12-21T02:19:58.762Z,0
2018-12-21T02:20:59.417Z,0
2018-12-21T02:22:00.117Z,0
2018-12-21T02:23:00.774Z,0
2018-12-21T02:24:01.430Z,0
2018-12-21T02:25:02.095Z,0
2018-12-21T02:26:02.835Z,0
2018-12-21T02:27:03.490Z,0
2018-12-21T02:28:04.144Z,0
2018-12-21T02:29:04.800Z,0
2018-12-21T02:30:05.455Z,0
2018-12-21T02:31:06.109Z,0
2018-12-21T02:32:06.765Z,0
2018-12-21T02:33:07.420Z,0
2018-12-21T02:34:08.080Z,0
2018-12-21T02:35:08.729Z,0
2018-12-21T02:36:09.384Z,0
2018-12-21T02:37:10.044Z,0
2018-12-21T02:38:10.736Z,0
2018-12-21T02:39:11.391Z,0
2018-12-21T02:40:12.049Z,0
2018-12-21T02:41:12.754Z,0
2018-12-21T02:42:13.412Z,0
2018-12-21T02:43:14.109Z,0
2018-12-21T02:44:14.763Z,0
2018-12-21T02:45:15.416Z,0
2018-12-21T02:46:16.071Z,0
2018-12-21T02:47:16.725Z,0
2018-12-21T02:48:17.382Z,0
2018-12-21T02:49:18.037Z,0
2018-12-21T02:50:18.692Z,0
2018-12-21T02:51:19.345Z,0
2018-12-21T02:52:19.999Z,0
2018-12-21T02:53:20.661Z,0
2018-12-21T02:54:21.356Z,0
2018-12-21T02:55:22.010Z,0
2018-12-21T02:56:22.670Z,0
2018-12-21T02:57:23.322Z,0
2018-12-21T02:58:23.977Z,0
2018-12-21T02:59:24.632Z,0
2018-12-21T03:00:25.286Z,0
2018-12-21T03:01:25.940Z,0
2018-12-21T03:02:26.593Z,0
2018-12-21T03:03:27.248Z,0
2018-12-21T03:04:27.903Z,0
2018-12-21T03:05:28.557Z,0
2018-12-21T03:06:29.211Z,0
2018-12-21T03:07:29.866Z,0
2018-12-21T03:08:30.523Z,0
2018-12-21T03:09:31.177Z,0
2018-12-21T03:10:31.832Z,0
2018-12-21T03:11:32.487Z,0
2018-12-21T03:12:33.144Z,0
2018-12-21T03:13:33.807Z,0
2018-12-21T03:14:34.514Z,0
2018-12-21T03:15:35.151Z,0
2018-12-21T03:16:35.809Z,0
2018-12-21T03:17:36.506Z,0
2018-12-21T03:18:37.160Z,0
2018-12-21T03:19:37.817Z,0
2018-12-21T03:20:38.474Z,0
2018-12-21T03:21:39.130Z,0
2018-12-21T03:22:39.828Z,0
2018-12-21T03:23:40.482Z,0
2018-12-21T03:24:41.137Z,0
2018-12-21T03:25:41.789Z,0
2018-12-21T03:26:42.444Z,0
2018-12-21T03:27:43.101Z,0
2018-12-21T03:28:43.755Z,0
2018-12-21T03:29:44.410Z,0
2018-12-21T03:30:45.064Z,0
2018-12-21T03:31:45.718Z,0
2018-12-21T03:32:46.372Z,0
2018-12-21T03:33:47.029Z,0
2018-12-21T03:34:47.687Z,0
2018-12-21T03:35:48.391Z,0
2018-12-21T03:36:49.042Z,0
2018-12-21T03:37:49.737Z,0
2018-12-21T03:38:50.394Z,0
2018-12-21T03:39:51.094Z,0
2018-12-21T03:40:51.804Z,0
2018-12-21T03:41:52.445Z,0
2018-12-21T03:42:53.101Z,0
2018-12-21T03:43:53.757Z,0
2018-12-21T03:44:54.412Z,0
2018-12-21T03:45:55.071Z,0
2018-12-21T03:46:55.723Z,0
2018-12-21T03:47:56.375Z,0
2018-12-21T03:48:57.034Z,0
2018-12-21T03:49:57.685Z,0
2018-12-21T03:50:58.341Z,0
2018-12-21T03:51:58.996Z,0
2018-12-21T03:52:59.694Z,0
2018-12-21T03:54:00.355Z,0
2018-12-21T03:55:01.005Z,0
2018-12-21T03:56:01.660Z,0
2018-12-21T03:57:02.314Z,0
2018-12-21T03:58:02.971Z,0
2018-12-21T03:59:03.625Z,0
2018-12-21T04:00:04.280Z,0
2018-12-21T04:01:04.938Z,0
2018-12-21T04:02:05.589Z,0
2018-12-21T04:03:06.293Z,0
2018-12-21T04:04:06.944Z,0
2018-12-21T04:05:07.642Z,0
2018-12-21T04:06:08.298Z,0
2018-12-21T04:07:08.952Z,0
2018-12-21T04:08:09.608Z,0
2018-12-21T04:09:10.263Z,0
2018-12-21T04:10:10.917Z,0
2018-12-21T04:11:11.571Z,0
2018-12-21T04:12:12.226Z,0
2018-12-21T04:13:12.882Z,0
2018-12-21T04:14:13.539Z,0
2018-12-21T04:15:14.195Z,0
2018-12-21T04:16:14.848Z,0
2018-12-21T04:17:15.502Z,0
2018-12-21T04:18:16.157Z,0
2018-12-21T04:19:16.810Z,0
2018-12-21T04:20:17.465Z,0
2018-12-21T04:21:18.122Z,0
2018-12-21T04:22:18.823Z,0
2018-12-21T04:23:19.478Z,0
2018-12-21T04:24:20.136Z,0
2018-12-21T04:25:20.786Z,0
2018-12-21T04:26:21.440Z,0
2018-12-21T04:27:22.097Z,0
2018-12-21T04:28:22.749Z,0
2018-12-21T04:29:23.405Z,0
2018-12-21T04:30:24.062Z,0
2018-12-21T04:31:24.717Z,0
2018-12-21T04:32:25.371Z,0
2018-12-21T04:33:26.025Z,0
2018-12-21T04:34:26.680Z,0
2018-12-21T04:35:27.335Z,0
2018-12-21T04:36:27.991Z,0
2018-12-21T04:37:28.691Z,0
2018-12-21T04:38:29.346Z,0
2018-12-21T04:39:30.001Z,0
2018-12-21T04:40:30.657Z,0
2018-12-21T04:41:31.312Z,0
2018-12-21T04:42:31.965Z,0
2018-12-21T04:43:32.621Z,0
2018-12-21T04:44:33.288Z,0
2018-12-21T04:45:33.976Z,0
2018-12-21T04:46:34.632Z,0
2018-12-21T04:47:35.286Z,0
2018-12-21T04:48:35.940Z,0
2018-12-21T04:49:36.594Z,0
2018-12-21T04:50:37.248Z,0
2018-12-21T04:51:37.904Z,0
2018-12-21T04:52:43.237Z,0
2018-12-21T04:53:40.204Z,0
2018-12-21T04:54:40.859Z,0
2018-12-21T04:55:41.514Z,0
2018-12-21T04:56:42.169Z,0
2018-12-21T04:57:42.877Z,0
2018-12-21T04:58:43.525Z,0
2018-12-21T04:59:44.183Z,0
2018-12-21T05:00:44.837Z,0
2018-12-21T05:01:45.495Z,0
2018-12-21T05:02:46.241Z,0
2018-12-21T05:03:46.901Z,0
2018-12-21T05:04:47.553Z,0
2018-12-21T05:05:48.217Z,0
2018-12-21T05:06:48.860Z,0
2018-12-21T05:07:49.514Z,0
2018-12-21T05:08:50.172Z,0
2018-12-21T05:09:50.827Z,0
2018-12-21T05:10:51.482Z,0
2018-12-21T05:11:52.181Z,0
2018-12-21T05:12:52.836Z,0
2018-12-21T05:13:53.490Z,0
2018-12-21T05:14:54.145Z,0
2018-12-21T05:15:54.799Z,0
2018-12-21T05:16:55.455Z,0
2018-12-21T05:17:56.116Z,0
2018-12-21T05:18:56.811Z,0
2018-12-21T05:19:57.466Z,0
2018-12-21T05:20:58.120Z,0
2018-12-21T05:21:58.778Z,0
2018-12-21T05:22:59.431Z,0
2018-12-21T05:24:00.086Z,0
2018-12-21T05:25:00.745Z,0
2018-12-21T05:26:01.401Z,0
2018-12-21T05:27:02.055Z,0
2018-12-21T05:28:02.712Z,0
2018-12-21T05:29:03.365Z,0
2018-12-21T05:30:04.021Z,0
2018-12-21T05:31:04.684Z,0
2018-12-21T05:32:05.380Z,0
2018-12-21T05:33:06.077Z,0
2018-12-21T05:34:06.734Z,0
2018-12-21T05:35:07.390Z,0
2018-12-21T05:36:08.043Z,0
2018-12-21T05:37:08.697Z,0
2018-12-21T05:38:09.353Z,0
2018-12-21T05:39:10.052Z,0
2018-12-21T05:40:10.707Z,0
2018-12-21T05:41:11.365Z,0
2018-12-21T05:42:12.018Z,0
2018-12-21T05:43:12.675Z,0
2018-12-21T05:44:13.328Z,0
2018-12-21T05:45:13.983Z,0
2018-12-21T05:46:14.637Z,0
2018-12-21T05:47:15.294Z,0
2018-12-21T05:48:15.950Z,0
2018-12-21T05:49:16.606Z,0
2018-12-21T05:50:17.260Z,0
2018-12-21T05:51:17.914Z,0
2018-12-21T05:52:18.570Z,0
2018-12-21T05:53:19.225Z,0
2018-12-21T05:54:19.880Z,0
2018-12-21T05:55:20.538Z,0
2018-12-21T05:56:21.196Z,0
2018-12-21T05:57:21.848Z,0
2018-12-21T05:58:22.503Z,0
2018-12-21T05:59:23.158Z,0
2018-12-21T06:00:23.812Z,0
2018-12-21T06:01:24.469Z,0
2018-12-21T06:02:25.124Z,0
2018-12-21T06:03:25.781Z,0
2018-12-21T06:04:26.436Z,0
2018-12-21T06:05:27.092Z,0
2018-12-21T06:06:27.746Z,0
2018-12-21T06:07:28.402Z,0
2018-12-21T06:08:29.057Z,0
2018-12-21T06:09:29.758Z,0
2018-12-21T06:10:30.415Z,0
2018-12-21T06:11:31.072Z,0
2018-12-21T06:12:31.726Z,0
2018-12-21T06:13:32.381Z,0
2018-12-21T06:14:33.037Z,0
2018-12-21T06:15:33.693Z,0
2018-12-21T06:16:34.347Z,0
2018-12-21T06:17:35.048Z,0
2018-12-21T06:18:35.704Z,0
2018-12-21T06:19:36.455Z,0
2018-12-21T06:20:37.113Z,0
2018-12-21T06:21:37.769Z,0
2018-12-21T06:22:38.423Z,0
2018-12-21T06:23:39.078Z,0
2018-12-21T06:24:39.732Z,0
2018-12-21T06:25:40.435Z,0
2018-12-21T06:26:41.088Z,0
2018-12-21T06:27:41.744Z,0
2018-12-21T06:28:42.402Z,0
2018-12-21T06:29:43.057Z,0
2018-12-21T06:30:43.712Z,0
2018-12-21T06:31:44.365Z,0
2018-12-21T06:32:45.021Z,0
2018-12-21T06:33:45.676Z,0
2018-12-21T06:34:46.331Z,0
2018-12-21T06:35:46.987Z,0
2018-12-21T06:36:47.644Z,0
2018-12-21T06:37:48.594Z,0
2018-12-21T06:38:49.250Z,0
2018-12-21T06:39:49.908Z,0
2018-12-21T06:40:50.561Z,0
2018-12-21T06:41:51.260Z,0
2018-12-21T06:42:51.916Z,0
2018-12-21T06:43:52.572Z,0
2018-12-21T06:44:53.228Z,0
2018-12-21T06:45:53.894Z,0
2018-12-21T06:46:54.537Z,0
2018-12-21T06:47:55.194Z,0
2018-12-21T06:48:55.848Z,4
2018-12-21T06:49:56.542Z,4
2018-12-21T06:50:57.205Z,4
2018-12-21T06:51:57.860Z,4
2018-12-21T06:52:58.516Z,4
2018-12-21T06:53:59.173Z,4
2018-12-21T06:54:59.827Z,4
2018-12-21T06:56:00.482Z,4
2018-12-21T06:57:01.184Z,4
2018-12-21T06:58:01.842Z,4
2018-12-21T06:59:02.541Z,4
2018-12-21T07:00:03.199Z,8
2018-12-21T07:01:03.897Z,8
2018-12-21T07:02:04.554Z,8
2018-12-21T07:03:05.210Z,12
2018-12-21T07:04:05.865Z,12
2018-12-21T07:05:06.520Z,12
2018-12-21T07:06:07.176Z,16
2018-12-21T07:07:07.832Z,16
2018-12-21T07:08:08.487Z,20
2018-12-21T07:09:09.144Z,20
2018-12-21T07:10:09.801Z,24
2018-12-21T07:11:10.460Z,24
2018-12-21T07:12:11.117Z,28
2018-12-21T07:13:11.772Z,28
2018-12-21T07:14:12.427Z,28
2018-12-21T07:15:13.084Z,32
2018-12-21T07:16:13.737Z,36
2018-12-21T07:17:14.392Z,36
2018-12-21T07:18:15.049Z,40
2018-12-21T07:19:15.758Z,40
2018-12-21T07:20:16.463Z,44
2018-12-21T07:21:17.113Z,48
2018-12-21T07:22:17.813Z,48
2018-12-21T07:23:26.875Z,52
2018-12-21T07:24:20.117Z,52
2018-12-21T07:25:20.773Z,56
2018-12-21T07:26:21.429Z,60
2018-12-21T07:27:22.085Z,60
2018-12-21T07:28:22.740Z,68
2018-12-21T07:29:23.398Z,72
2018-12-21T07:30:24.050Z,80
2018-12-21T07:31:24.709Z,88
2018-12-21T07:32:25.365Z,96
2018-12-21T07:33:26.022Z,104
2018-12-21T07:34:26.683Z,104
2018-12-21T07:35:27.335Z,108
2018-12-21T07:36:27.995Z,112
2018-12-21T07:37:28.650Z,116
2018-12-21T07:38:29.308Z,120
2018-12-21T07:39:32.259Z,124
2018-12-21T07:40:31.612Z,136
2018-12-21T07:41:32.269Z,148
2018-12-21T07:42:32.926Z,164
2018-12-21T07:43:33.584Z,184
2018-12-21T07:44:34.243Z,204
2018-12-21T07:45:34.901Z,224
2018-12-21T07:46:35.560Z,252
2018-12-21T07:47:36.218Z,268
2018-12-21T07:48:36.875Z,288
2018-12-21T07:49:37.533Z,304
2018-12-21T07:50:38.190Z,324
2018-12-21T07:51:38.893Z,344
2018-12-21T07:52:39.552Z,376
2018-12-21T07:53:40.215Z,412
2018-12-21T07:54:40.868Z,448
2018-12-21T07:55:41.525Z,484
2018-12-21T07:56:42.184Z,516
2018-12-21T07:57:42.841Z,536
2018-12-21T07:58:43.501Z,556
2018-12-21T07:59:44.163Z,576
2018-12-21T08:00:44.822Z,600
2018-12-21T08:01:45.481Z,616
2018-12-21T08:02:46.139Z,620
2018-12-21T08:03:46.798Z,612
2018-12-21T08:04:47.457Z,604
2018-12-21T08:05:48.162Z,604
2018-12-21T08:06:48.817Z,600
2018-12-21T08:07:49.520Z,592
2018-12-21T08:08:50.178Z,592
2018-12-21T08:09:50.836Z,588
2018-12-21T08:10:51.496Z,584
2018-12-21T08:11:52.153Z,556
2018-12-21T08:12:52.815Z,532
2018-12-21T08:13:53.470Z,508
2018-12-21T08:14:54.127Z,488
2018-12-21T08:15:54.785Z,480
2018-12-21T08:16:55.448Z,460
2018-12-21T08:17:56.105Z,428
2018-12-21T08:18:56.762Z,396
2018-12-21T08:19:57.423Z,372
2018-12-21T08:20:58.166Z,352
2018-12-21T08:21:58.795Z,336
2018-12-21T08:22:59.455Z,320
2018-12-21T08:24:00.116Z,308
2018-12-21T08:25:00.820Z,300
2018-12-21T08:26:01.483Z,292
2018-12-21T08:27:02.139Z,288
2018-12-21T08:28:02.804Z,288
2018-12-21T08:29:03.457Z,268
2018-12-21T08:30:04.116Z,260
2018-12-21T08:31:04.827Z,276
2018-12-21T08:32:05.480Z,288
2018-12-21T08:33:06.136Z,280
2018-12-21T08:34:06.791Z,288
2018-12-21T08:35:07.451Z,292
2018-12-21T08:36:08.107Z,296
2018-12-21T08:37:08.767Z,320
2018-12-21T08:38:09.426Z,328
2018-12-21T08:39:10.083Z,340
2018-12-21T08:40:10.741Z,360
2018-12-21T08:41:11.401Z,380
2018-12-21T08:42:12.106Z,404
2018-12-21T08:43:12.763Z,416
2018-12-21T08:44:13.423Z,428
2018-12-21T08:45:14.084Z,448
2018-12-21T08:46:14.743Z,464
2018-12-21T08:47:15.404Z,480
2018-12-21T08:48:16.063Z,500
2018-12-21T08:49:16.770Z,516
2018-12-21T08:50:17.470Z,524
2018-12-21T08:51:18.133Z,508
2018-12-21T08:52:18.794Z,480
2018-12-21T08:53:19.452Z,492
2018-12-21T08:54:20.114Z,500
2018-12-21T08:55:20.818Z,528
2018-12-21T08:56:21.479Z,556
2018-12-21T08:57:22.136Z,584
2018-12-21T08:58:22.794Z,612
2018-12-21T08:59:23.454Z,608
2018-12-21T09:00:24.113Z,620
2018-12-21T09:01:24.772Z,620
2018-12-21T09:02:25.479Z,608
2018-12-21T09:03:26.135Z,584
2018-12-21T09:04:32.241Z,572
2018-12-21T09:05:28.444Z,584
2018-12-21T09:06:29.100Z,588
2018-12-21T09:07:29.757Z,588
2018-12-21T09:08:30.415Z,584
2018-12-21T09:09:31.074Z,572
2018-12-21T09:10:31.733Z,556
2018-12-21T09:11:32.394Z,548
2018-12-21T09:12:33.048Z,544
2018-12-21T09:13:33.748Z,564
2018-12-21T09:14:34.407Z,600
2018-12-21T09:15:35.067Z,648
2018-12-21T09:16:35.725Z,696
2018-12-21T09:17:36.384Z,720
2018-12-21T09:18:37.044Z,764
2018-12-21T09:19:37.701Z,784
2018-12-21T09:20:38.358Z,780
2018-12-21T09:21:39.015Z,752
2018-12-21T09:22:39.672Z,760
2018-12-21T09:23:40.330Z,800
2018-12-21T09:24:41.034Z,840
2018-12-21T09:25:41.694Z,868
2018-12-21T09:26:42.352Z,888
2018-12-21T09:27:43.010Z,912
2018-12-21T09:28:43.666Z,920
2018-12-21T09:29:44.323Z,924
2018-12-21T09:30:44.982Z,908
2018-12-21T09:31:45.643Z,892
2018-12-21T09:32:46.301Z,892
2018-12-21T09:33:46.959Z,916
2018-12-21T09:34:47.623Z,924
2018-12-21T09:35:48.280Z,900
2018-12-21T09:36:48.939Z,868
2018-12-21T09:37:49.596Z,828
2018-12-21T09:38:50.254Z,784
2018-12-21T09:39:50.912Z,768
2018-12-21T09:40:51.569Z,764
2018-12-21T09:41:52.227Z,764
2018-12-21T09:42:53.527Z,748
2018-12-21T09:43:54.169Z,740
2018-12-21T09:44:54.829Z,756
2018-12-21T09:45:55.488Z,784
2018-12-21T09:46:56.147Z,812
2018-12-21T09:47:56.808Z,860
2018-12-21T09:48:57.466Z,920
2018-12-21T09:49:58.125Z,980
2018-12-21T09:50:58.783Z,1004
2018-12-21T09:51:59.446Z,1028
2018-12-21T09:53:00.101Z,1040
2018-12-21T09:54:00.759Z,1044
2018-12-21T09:55:01.418Z,1040
2018-12-21T09:56:02.123Z,1036
2018-12-21T09:57:02.828Z,1044
2018-12-21T09:58:03.528Z,1060
2018-12-21T09:59:04.189Z,1080
2018-12-21T10:00:04.850Z,1100
2018-12-21T10:01:05.509Z,1108
2018-12-21T10:02:06.211Z,1124
2018-12-21T10:03:06.872Z,1144
2018-12-21T10:04:07.531Z,1160
2018-12-21T10:05:08.191Z,1164
2018-12-21T10:06:08.900Z,1180
2018-12-21T10:07:09.567Z,1176
2018-12-21T10:08:10.215Z,1148
2018-12-21T10:09:10.919Z,1132
2018-12-21T10:10:11.579Z,1148
2018-12-21T10:11:12.239Z,1200
2018-12-21T10:12:12.897Z,1256
2018-12-21T10:13:13.556Z,1316
2018-12-21T10:14:14.215Z,1368
2018-12-21T10:15:14.874Z,1420
2018-12-21T10:16:15.578Z,1472
2018-12-21T10:17:16.237Z,1500
2018-12-21T10:18:16.896Z,1508
2018-12-21T10:19:17.556Z,1508
2018-12-21T10:20:20.053Z,1508
2018-12-21T10:21:19.867Z,1496
2018-12-21T10:22:20.526Z,1460
2018-12-21T10:23:21.183Z,1428
2018-12-21T10:24:21.846Z,1404
2018-12-21T10:25:22.505Z,1376
2018-12-21T10:26:23.165Z,1360
2018-12-21T10:27:23.825Z,1364
2018-12-21T10:28:24.487Z,1384
2018-12-21T10:29:25.155Z,1420
2018-12-21T10:30:25.807Z,1436
2018-12-21T10:31:26.469Z,1432
2018-12-21T10:32:27.130Z,1424
2018-12-21T10:33:27.834Z,1408
2018-12-21T10:34:28.494Z,1396
2018-12-21T10:35:29.154Z,1368
2018-12-21T10:36:29.814Z,1292
2018-12-21T10:37:30.487Z,1204
2018-12-21T10:38:31.137Z,1132
2018-12-21T10:39:31.797Z,1092
2018-12-21T10:40:32.458Z,1056
2018-12-21T10:41:33.120Z,1012
2018-12-21T10:42:33.785Z,960
2018-12-21T10:43:34.482Z,924
2018-12-21T10:44:35.144Z,928
2018-12-21T10:45:41.590Z,928
2018-12-21T10:46:37.452Z,920
2018-12-21T10:47:38.114Z,920
2018-12-21T10:48:38.816Z,936
2018-12-21T10:49:39.476Z,952
2018-12-21T10:50:40.137Z,956
2018-12-21T10:51:40.798Z,952
2018-12-21T10:52:41.502Z,972
2018-12-21T10:53:46.517Z,980
2018-12-21T10:54:43.840Z,952
2018-12-21T10:55:44.515Z,912
2018-12-21T10:56:45.174Z,852
2018-12-21T10:57:45.832Z,860
2018-12-21T10:58:46.494Z,916
2018-12-21T10:59:47.151Z,1012
2018-12-21T11:00:47.811Z,1136
2018-12-21T11:01:48.471Z,1208
2018-12-21T11:02:49.132Z,1248
2018-12-21T11:03:49.793Z,1244
2018-12-21T11:04:50.456Z,1336
2018-12-21T11:05:51.114Z,1424
2018-12-21T11:06:51.774Z,1448
2018-12-21T11:07:52.436Z,1424
2018-12-21T11:08:53.099Z,1400
2018-12-21T11:09:53.761Z,1324
2018-12-21T11:10:54.424Z,1256
2018-12-21T11:11:55.095Z,1292
2018-12-21T11:12:55.790Z,1420
2018-12-21T11:13:56.453Z,1392
2018-12-21T11:14:57.119Z,1276
2018-12-21T11:15:57.819Z,1180
2018-12-21T11:16:58.524Z,1028
2018-12-21T11:17:59.181Z,936
2018-12-21T11:18:59.840Z,884
2018-12-21T11:20:00.502Z,856
2018-12-21T11:21:01.165Z,884
2018-12-21T11:22:01.825Z,860
2018-12-21T11:23:02.487Z,892
2018-12-21T11:24:03.193Z,984
2018-12-21T11:25:03.854Z,1028
2018-12-21T11:26:04.514Z,1028
2018-12-21T11:27:05.175Z,1080
2018-12-21T11:28:05.836Z,1144
2018-12-21T11:29:06.497Z,1224
2018-12-21T11:30:07.157Z,1268
2018-12-21T11:31:07.817Z,1360
2018-12-21T11:32:08.479Z,1508
2018-12-21T11:33:09.141Z,1636
2018-12-21T11:34:09.804Z,1628
2018-12-21T11:35:10.466Z,1488
2018-12-21T11:36:11.163Z,1336
2018-12-21T11:37:11.828Z,1424
2018-12-21T11:38:12.490Z,1688
2018-12-21T11:39:13.152Z,1808
2018-12-21T11:40:13.813Z,1908
2018-12-21T11:41:14.473Z,2016
2018-12-21T11:42:15.135Z,2064
2018-12-21T11:43:15.794Z,2056
2018-12-21T11:44:16.456Z,1968
2018-12-21T11:45:17.117Z,1932
2018-12-21T11:46:17.780Z,1960
2018-12-21T11:47:18.449Z,1928
2018-12-21T11:48:19.102Z,1948
2018-12-21T11:49:19.764Z,2100
2018-12-21T11:50:20.425Z,2216
2018-12-21T11:51:21.086Z,2360
2018-12-21T11:52:21.746Z,2544
2018-12-21T11:53:22.408Z,2576
2018-12-21T11:54:23.067Z,2584
2018-12-21T11:55:23.730Z,2496
2018-12-21T11:56:24.394Z,2520
2018-12-21T11:57:25.054Z,2384
2018-12-21T11:58:25.715Z,2184
2018-12-21T11:59:26.421Z,2064
2018-12-21T12:00:27.135Z,1944
2018-12-21T12:01:27.791Z,1820
2018-12-21T12:02:28.452Z,1684
2018-12-21T12:03:29.112Z,1648
2018-12-21T12:04:29.774Z,1780
2018-12-21T12:05:30.435Z,1916
2018-12-21T12:06:31.096Z,2028
2018-12-21T12:07:31.758Z,2108
2018-12-21T12:08:32.419Z,2056
2018-12-21T12:09:33.084Z,1952
2018-12-21T12:10:33.741Z,1960
2018-12-21T12:11:34.403Z,1984
2018-12-21T12:12:35.065Z,2032
2018-12-21T12:13:35.729Z,2000
2018-12-21T12:14:36.389Z,2032
2018-12-21T12:15:37.051Z,2176
2018-12-21T12:16:37.711Z,2224
2018-12-21T12:17:38.374Z,2324
2018-12-21T12:18:39.036Z,2396
2018-12-21T12:19:39.699Z,2516
2018-12-21T12:20:40.405Z,2532
2018-12-21T12:21:41.068Z,2656
2018-12-21T12:22:41.731Z,2964
2018-12-21T12:23:42.391Z,3048
2018-12-21T12:24:43.052Z,3040
2018-12-21T12:25:43.721Z,3044
2018-12-21T12:26:44.739Z,2996
2018-12-21T12:27:45.077Z,2880
2018-12-21T12:28:45.738Z,2816
2018-12-21T12:29:46.509Z,2840
2018-12-21T12:30:47.102Z,2788
2018-12-21T12:31:47.763Z,2732
2018-12-21T12:32:48.423Z,2648
2018-12-21T12:33:49.084Z,2636
2018-12-21T12:34:49.744Z,2664
2018-12-21T12:35:50.405Z,2724
2018-12-21T12:36:51.067Z,2736
2018-12-21T12:37:51.728Z,2696
2018-12-21T12:38:52.388Z,2632
2018-12-21T12:39:53.051Z,2576
2018-12-21T12:40:53.714Z,2604
2018-12-21T12:41:54.373Z,2512
2018-12-21T12:42:55.033Z,2436
2018-12-21T12:43:55.696Z,2456
2018-12-21T12:44:56.408Z,2548
2018-12-21T12:45:57.069Z,2500
2018-12-21T12:46:57.730Z,2356
2018-12-21T12:47:58.391Z,2256
2018-12-21T12:48:59.055Z,2196
2018-12-21T12:49:59.717Z,2060
2018-12-21T12:51:00.420Z,2052
2018-12-21T12:52:01.085Z,2040
2018-12-21T12:53:01.745Z,2088
2018-12-21T12:54:02.407Z,2012
2018-12-21T12:55:03.376Z,1964
2018-12-21T12:56:05.314Z,1964
2018-12-21T12:57:05.669Z,1960
2018-12-21T12:58:06.332Z,1916
2018-12-21T12:59:06.995Z,1880
2018-12-21T13:00:07.657Z,1784
2018-12-21T13:01:08.319Z,1728
2018-12-21T13:02:08.983Z,1660
2018-12-21T13:03:09.732Z,1580
2018-12-21T13:04:10.360Z,1524
2018-12-21T13:05:11.020Z,1492
2018-12-21T13:06:11.686Z,1488
2018-12-21T13:07:12.343Z,1524
2018-12-21T13:08:13.003Z,1588
2018-12-21T13:09:13.665Z,1636
2018-12-21T13:10:14.327Z,1716
2018-12-21T13:11:14.988Z,1780
2018-12-21T13:12:15.651Z,1804
2018-12-21T13:13:16.315Z,1796
2018-12-21T13:14:16.980Z,1856
2018-12-21T13:15:17.693Z,2004
2018-12-21T13:16:18.359Z,2120
2018-12-21T13:17:19.025Z,2176
2018-12-21T13:18:19.691Z,2260
2018-12-21T13:19:20.358Z,2372
2018-12-21T13:20:21.025Z,2460
2018-12-21T13:21:21.691Z,2504
2018-12-21T13:22:22.365Z,2576
2018-12-21T13:23:23.069Z,2600
2018-12-21T13:24:23.735Z,2620
2018-12-21T13:25:24.404Z,2576
2018-12-21T13:26:25.070Z,2416
2018-12-21T13:27:25.732Z,2356
2018-12-21T13:28:26.398Z,2364
2018-12-21T13:29:27.112Z,2424
2018-12-21T13:30:27.780Z,2424
2018-12-21T13:31:28.443Z,2460
2018-12-21T13:32:29.108Z,2400
2018-12-21T13:33:29.773Z,2368
2018-12-21T13:34:30.439Z,2396
2018-12-21T13:35:31.109Z,2312
2018-12-21T13:36:31.772Z,2228
2018-12-21T13:37:32.437Z,2276
2018-12-21T13:38:33.103Z,2364
2018-12-21T13:39:33.768Z,2396
2018-12-21T13:40:34.434Z,2296
2018-12-21T13:41:35.101Z,2184
2018-12-21T13:42:35.768Z,2104
2018-12-21T13:43:36.485Z,2048
2018-12-21T13:44:37.151Z,2000
2018-12-21T13:45:37.817Z,1964
2018-12-21T13:46:38.485Z,2008
2018-12-21T13:47:39.150Z,1992
2018-12-21T13:48:39.816Z,1956
2018-12-21T13:49:40.532Z,1924
2018-12-21T13:50:41.200Z,1872
2018-12-21T13:51:41.868Z,1772
2018-12-21T13:52:42.532Z,1700
2018-12-21T13:53:43.199Z,1616
2018-12-21T13:54:43.865Z,1568
2018-12-21T13:55:44.531Z,1484
2018-12-21T13:56:45.198Z,1400
2018-12-21T13:57:45.864Z,1420
2018-12-21T13:58:46.556Z,1404
2018-12-21T13:59:47.244Z,1340
2018-12-21T14:00:47.918Z,1288
2018-12-21T14:01:48.635Z,1352
2018-12-21T14:02:49.290Z,1324
2018-12-21T14:03:50.061Z,1300
2018-12-21T14:04:50.680Z,1232
2018-12-21T14:05:51.347Z,1160
2018-12-21T14:06:52.013Z,1068
2018-12-21T14:07:52.682Z,1048
2018-12-21T14:08:53.344Z,984
2018-12-21T14:09:54.011Z,912
2018-12-21T14:10:54.678Z,804
2018-12-21T14:11:55.340Z,764
2018-12-21T14:12:56.003Z,696
2018-12-21T14:13:56.667Z,552
2018-12-21T14:14:57.382Z,560
2018-12-21T14:15:58.095Z,556
2018-12-21T14:16:58.759Z,480